Time;durP1;ratioP1;P1;durP2;ratioP2;P2;SDS_P1;SDS_P2;PMS_P1;PMS_P2;Temp;Humidity;BMP_temperature;BMP_pressure;BME280_temperature;BME280_humidity;BME280_pressure;Samples;Min_cycle;Max_cycle;Signal;HPM_P1;HPM_P2
2021/04/23 00:01:57;;;;;;;11.70;4.65;;;13.50;99.90;;;;;;5068684;28;20049;-51
2021/04/23 00:04:28;;;;;;;8.80;4.47;;;13.50;99.90;;;;;;5076527;28;20052;-56
2021/04/23 00:06:58;;;;;;;5.13;3.75;;;13.50;99.90;;;;;;5071666;28;20143;-50
2021/04/23 00:09:30;;;;;;;8.75;4.78;;;13.50;99.90;;;;;;5075963;28;20079;-52
2021/04/23 00:11:59;;;;;;;7.18;4.45;;;13.50;99.90;;;;;;5084035;28;20105;-54
2021/04/23 00:14:35;;;;;;;9.85;4.65;;;13.50;99.90;;;;;;5065633;28;20057;-51
2021/04/23 00:17:04;;;;;;;14.75;7.25;;;13.50;99.90;;;;;;5085088;28;20052;-51
2021/04/23 00:19:31;;;;;;;10.45;4.88;;;13.50;99.90;;;;;;5058323;28;20047;-55
2021/04/23 00:21:59;;;;;;;9.00;4.38;;;13.40;99.90;;;;;;5082761;28;20053;-54
2021/04/23 00:24:29;;;;;;;6.43;3.95;;;13.40;99.90;;;;;;5060241;28;20039;-50
2021/04/23 00:26:57;;;;;;;7.80;4.15;;;13.40;99.90;;;;;;5084423;28;20044;-51
2021/04/23 00:29:25;;;;;;;14.82;5.03;;;13.40;99.90;;;;;;5077656;28;20043;-52
2021/04/23 00:34:41;;;;;;;5.70;4.25;;;13.40;99.90;;;;;;5074376;28;20497;-49
2021/04/23 00:37:08;;;;;;;5.45;3.88;;;13.40;99.90;;;;;;5088615;28;20059;-54
2021/04/23 00:39:36;;;;;;;6.75;4.30;;;13.40;99.90;;;;;;5085459;28;20102;-51
2021/04/23 00:42:05;;;;;;;8.75;5.10;;;13.30;99.90;;;;;;5083560;28;20041;-50
2021/04/23 00:44:33;;;;;;;6.38;4.28;;;13.40;99.90;;;;;;5076218;28;20490;-51
2021/04/23 00:47:00;;;;;;;9.20;4.10;;;13.30;99.90;;;;;;5066645;28;20044;-53
2021/04/23 00:49:28;;;;;;;7.65;5.70;;;13.30;99.90;;;;;;5061313;28;20055;-52
2021/04/23 00:51:59;;;;;;;7.93;5.00;;;13.30;99.90;;;;;;5049044;28;20384;-50
2021/04/23 00:54:28;;;;;;;7.43;4.22;;;13.30;99.90;;;;;;5058654;28;20110;-51
2021/04/23 00:56:55;;;;;;;13.55;6.20;;;13.30;99.90;;;;;;5084062;28;20051;-51
2021/04/23 00:59:24;;;;;;;20.15;5.03;;;13.30;99.90;;;;;;5057736;28;20537;-50
2021/04/23 01:01:56;;;;;;;12.50;4.65;;;13.30;99.90;;;;;;5084289;28;20454;-53
2021/04/23 01:04:28;;;;;;;9.82;4.30;;;13.30;99.90;;;;;;5058372;28;20048;-52
2021/04/23 01:06:56;;;;;;;7.28;3.70;;;13.30;99.90;;;;;;5064850;28;20053;-52
2021/04/23 01:09:27;;;;;;;8.32;3.92;;;13.30;99.90;;;;;;5057648;28;20048;-54
2021/04/23 01:11:57;;;;;;;7.88;4.30;;;13.30;99.90;;;;;;5067075;28;20512;-51
2021/04/23 01:14:27;;;;;;;6.63;4.00;;;13.20;99.90;;;;;;5074660;28;20052;-50
2021/04/23 01:16:57;;;;;;;8.57;4.47;;;13.20;99.90;;;;;;5067326;28;20036;-51
2021/04/23 01:19:27;;;;;;;8.77;6.47;;;13.20;99.90;;;;;;5074389;28;20045;-52
2021/04/23 01:21:57;;;;;;;5.55;3.30;;;13.20;99.90;;;;;;5083309;28;20442;-52
2021/04/23 01:24:24;;;;;;;6.55;3.65;;;13.30;99.90;;;;;;5074001;28;20552;-51
2021/04/23 01:26:54;;;;;;;6.78;3.95;;;13.30;99.90;;;;;;5064378;28;20380;-51
2021/04/23 01:29:23;;;;;;;8.57;3.95;;;13.20;99.90;;;;;;5074940;28;20059;-50
2021/04/23 01:31:57;;;;;;;5.60;3.55;;;13.20;99.90;;;;;;5079568;28;20063;-54
2021/04/23 01:34:31;;;;;;;8.40;4.05;;;13.20;99.90;;;;;;5074323;28;20072;-52
2021/04/23 01:37:00;;;;;;;9.40;4.03;;;13.20;99.90;;;;;;5082738;28;20087;-48
2021/04/23 01:39:30;;;;;;;7.43;4.28;;;13.20;99.90;;;;;;5057754;28;20049;-47
2021/04/23 01:42:00;;;;;;;7.05;4.75;;;13.20;99.90;;;;;;5066395;28;20055;-49
2021/04/23 01:44:29;;;;;;;10.55;5.50;;;13.20;99.90;;;;;;5074538;28;20043;-53
2021/04/23 01:46:58;;;;;;;5.45;3.53;;;13.20;99.90;;;;;;5084334;28;20102;-49
2021/04/23 01:49:28;;;;;;;11.65;4.40;;;13.10;99.90;;;;;;5074103;28;20122;-53
2021/04/23 01:52:01;;;;;;;7.78;4.57;;;13.10;99.90;;;;;;5082066;28;20059;-53
2021/04/23 01:54:35;;;;;;;5.93;3.92;;;13.10;99.90;;;;;;5074090;28;20407;-54
2021/04/23 01:57:06;;;;;;;15.80;4.18;;;13.10;99.90;;;;;;5081708;28;20048;-52
2021/04/23 01:59:37;;;;;;;5.68;4.13;;;13.00;99.90;;;;;;5074752;28;20512;-56
2021/04/23 02:02:05;;;;;;;7.47;4.50;;;13.10;99.90;;;;;;5088768;28;20075;-54
2021/04/23 02:04:33;;;;;;;8.30;4.78;;;13.00;99.90;;;;;;5090941;28;20047;-55
2021/04/23 02:07:05;;;;;;;6.28;5.10;;;13.00;99.90;;;;;;5065046;28;20487;-54
2021/04/23 02:09:33;;;;;;;8.23;4.40;;;13.00;99.90;;;;;;5074676;28;20044;-52
2021/04/23 02:12:02;;;;;;;10.75;5.10;;;13.00;99.90;;;;;;5081836;28;20080;-56
2021/04/23 02:14:30;;;;;;;4.93;3.72;;;13.00;99.90;;;;;;5074137;28;20375;-50
2021/04/23 02:16:57;;;;;;;7.50;5.03;;;13.00;99.90;;;;;;5081545;28;20053;-54
2021/04/23 02:19:26;;;;;;;8.18;3.95;;;12.90;99.90;;;;;;5073167;28;20139;-50
2021/04/23 02:21:53;;;;;;;5.32;3.80;;;12.90;99.90;;;;;;5082572;28;20056;-52
2021/04/23 02:24:20;;;;;;;11.82;4.72;;;12.90;99.90;;;;;;5072630;28;20083;-54
2021/04/23 02:26:48;;;;;;;15.18;4.70;;;12.90;99.90;;;;;;5061634;28;20052;-52
2021/04/23 02:29:18;;;;;;;6.07;4.60;;;12.80;99.90;;;;;;5056007;28;20058;-51
2021/04/23 02:31:50;;;;;;;8.60;3.90;;;12.90;99.90;;;;;;5083342;28;20395;-52
2021/04/23 02:34:20;;;;;;;8.93;4.20;;;12.90;99.90;;;;;;5072631;28;20044;-55
2021/04/23 02:36:48;;;;;;;8.48;3.97;;;12.90;99.90;;;;;;5081445;28;20498;-51
2021/04/23 02:39:18;;;;;;;16.40;4.93;;;12.90;99.90;;;;;;5091228;28;20051;-53
2021/04/23 02:41:49;;;;;;;10.23;5.72;;;12.80;99.90;;;;;;5063431;28;20052;-52
2021/04/23 02:44:17;;;;;;;8.25;5.53;;;12.80;99.90;;;;;;5072808;28;20563;-50
2021/04/23 02:46:44;;;;;;;6.63;3.85;;;12.80;99.90;;;;;;5084458;28;20090;-50
2021/04/23 02:49:12;;;;;;;7.60;4.55;;;12.80;99.90;;;;;;5072316;28;20185;-50
2021/04/23 02:51:45;;;;;;;9.27;4.07;;;12.80;99.90;;;;;;5099933;28;20052;-53
2021/04/23 02:54:14;;;;;;;6.28;4.35;;;12.80;99.90;;;;;;5072481;28;20040;-51
2021/04/23 02:56:42;;;;;;;12.48;4.53;;;12.80;99.90;;;;;;5084125;28;20052;-54
2021/04/23 02:59:12;;;;;;;6.28;3.30;;;12.70;99.90;;;;;;5071576;28;20127;-50
2021/04/23 03:01:48;;;;;;;5.90;3.92;;;12.70;99.90;;;;;;5071966;28;20057;-54
2021/04/23 03:04:19;;;;;;;6.20;2.97;;;12.80;99.90;;;;;;5072612;28;20061;-50
2021/04/23 03:06:49;;;;;;;9.82;3.50;;;12.70;99.90;;;;;;5084109;28;20056;-50
2021/04/23 03:09:16;;;;;;;7.60;4.20;;;12.70;99.90;;;;;;5071836;28;20048;-52
2021/04/23 03:11:43;;;;;;;5.22;3.03;;;12.60;99.90;;;;;;5082994;28;20487;-52
2021/04/23 03:14:14;;;;;;;5.57;3.30;;;12.60;99.90;;;;;;5072031;28;20106;-54
2021/04/23 03:16:45;;;;;;;8.90;4.63;;;12.60;99.90;;;;;;5099629;28;20402;-51
2021/04/23 03:19:17;;;;;;;10.43;4.03;;;12.60;99.90;;;;;;5072098;28;20049;-50
2021/04/23 03:21:46;;;;;;;8.55;4.13;;;12.60;99.90;;;;;;5099625;28;20498;-51
2021/04/23 03:24:14;;;;;;;7.82;3.60;;;12.60;99.90;;;;;;5073110;28;20401;-55
2021/04/23 03:26:43;;;;;;;5.57;3.38;;;12.60;99.90;;;;;;5062122;28;20063;-50
2021/04/23 03:29:13;;;;;;;7.72;4.05;;;12.60;99.90;;;;;;5074365;28;20041;-51
2021/04/23 03:31:41;;;;;;;5.97;3.17;;;12.60;99.90;;;;;;5086900;28;20470;-50
2021/04/23 03:34:09;;;;;;;6.57;4.72;;;12.70;99.90;;;;;;5075605;28;20069;-52
2021/04/23 03:36:37;;;;;;;9.25;3.67;;;12.70;99.90;;;;;;5095180;28;20135;-50
2021/04/23 03:39:08;;;;;;;5.53;3.20;;;12.70;99.90;;;;;;5095416;28;20142;-55
2021/04/23 03:41:40;;;;;;;4.07;2.40;;;12.70;99.90;;;;;;5085229;28;20048;-49
2021/04/23 03:44:17;;;;;;;5.85;3.35;;;12.80;99.90;;;;;;5062210;28;20406;-53
2021/04/23 03:46:54;;;;;;;8.18;2.38;;;12.80;99.90;;;;;;5084335;28;20402;-47
2021/04/23 03:49:30;;;;;;;6.20;2.58;;;12.80;99.90;;;;;;5064639;28;20133;-51
2021/04/23 03:51:58;;;;;;;3.20;2.33;;;12.90;99.90;;;;;;5066789;28;20047;-49
2021/04/23 03:54:33;;;;;;;7.45;3.03;;;13.10;99.90;;;;;;5077550;28;20040;-51
2021/04/23 03:57:06;;;;;;;5.07;2.42;;;13.20;99.90;;;;;;5068705;28;20063;-47
2021/04/23 03:59:44;;;;;;;5.68;2.35;;;13.30;99.90;;;;;;5093885;28;20055;-49
2021/04/23 04:02:17;;;;;;;5.20;2.05;;;13.30;99.90;;;;;;5084701;28;20072;-49
2021/04/23 04:04:46;;;;;;;6.35;2.72;;;13.30;99.90;;;;;;5069808;28;20134;-49
2021/04/23 04:07:14;;;;;;;4.88;2.20;;;13.30;99.90;;;;;;5085911;28;20059;-48
2021/04/23 04:09:46;;;;;;;5.35;2.80;;;13.30;99.90;;;;;;5090006;28;20041;-49
2021/04/23 04:12:14;;;;;;;4.43;3.00;;;13.30;99.90;;;;;;5086183;28;20048;-47
2021/04/23 04:14:44;;;;;;;4.22;2.10;;;13.30;99.90;;;;;;5091890;28;20123;-48
2021/04/23 04:17:18;;;;;;;3.97;1.90;;;13.30;99.90;;;;;;5083800;28;20140;-50
2021/04/23 04:19:48;;;;;;;4.60;2.30;;;13.30;99.90;;;;;;5078925;28;20051;-49
2021/04/23 04:22:15;;;;;;;3.17;2.08;;;13.30;99.90;;;;;;5065840;28;20080;-49
2021/04/23 04:24:43;;;;;;;3.67;2.00;;;13.30;99.90;;;;;;5085653;28;20174;-50
2021/04/23 04:27:10;;;;;;;4.25;2.72;;;13.40;99.90;;;;;;5081666;28;20075;-49
2021/04/23 04:29:38;;;;;;;6.07;2.40;;;13.40;99.90;;;;;;5087373;28;20048;-53
2021/04/23 04:32:06;;;;;;;4.68;2.70;;;13.40;99.90;;;;;;5070769;28;20490;-48
2021/04/23 04:34:36;;;;;;;3.90;1.98;;;13.20;99.90;;;;;;5060901;28;20056;-48
2021/04/23 04:37:03;;;;;;;5.07;2.55;;;13.20;99.90;;;;;;5083379;28;20049;-51
2021/04/23 04:39:31;;;;;;;6.68;3.38;;;13.20;99.90;;;;;;5058084;28;20037;-49
2021/04/23 04:41:58;;;;;;;6.35;3.85;;;13.30;99.90;;;;;;5086079;28;20409;-49
2021/04/23 04:44:29;;;;;;;4.68;2.97;;;13.40;99.90;;;;;;5083967;28;20838;-49
2021/04/23 04:46:57;;;;;;;3.90;2.67;;;13.30;99.90;;;;;;5067457;28;20441;-52
2021/04/23 04:49:25;;;;;;;8.07;3.80;;;13.30;99.90;;;;;;5052842;28;20529;-49
2021/04/23 04:51:53;;;;;;;5.38;2.90;;;13.30;99.90;;;;;;5054205;28;20491;-49
2021/04/23 04:54:20;;;;;;;5.93;2.60;;;13.30;99.90;;;;;;5074264;28;20045;-50
2021/04/23 04:56:47;;;;;;;4.90;2.85;;;13.30;99.90;;;;;;5092180;28;20494;-52
2021/04/23 04:59:18;;;;;;;5.80;2.40;;;13.30;99.90;;;;;;5080279;28;20399;-52
2021/04/23 05:01:46;;;;;;;5.50;2.72;;;13.30;99.90;;;;;;5092461;28;20097;-48
2021/04/23 05:04:13;;;;;;;5.95;2.97;;;13.40;99.90;;;;;;5091972;28;20035;-51
2021/04/23 05:06:41;;;;;;;11.43;3.45;;;13.40;99.90;;;;;;5058967;28;20072;-53
2021/04/23 05:09:08;;;;;;;5.20;3.05;;;13.40;99.90;;;;;;5090479;28;20052;-51
2021/04/23 05:11:36;;;;;;;5.70;2.95;;;13.50;99.90;;;;;;5056910;28;20036;-50
2021/04/23 05:14:03;;;;;;;4.70;2.53;;;13.50;99.90;;;;;;5092742;28;20044;-53
2021/04/23 05:16:34;;;;;;;5.85;2.90;;;13.60;99.90;;;;;;5052212;28;20052;-49
2021/04/23 05:19:01;;;;;;;5.00;2.38;;;13.50;99.90;;;;;;5090114;28;20564;-52
2021/04/23 05:21:28;;;;;;;6.75;3.10;;;13.40;99.90;;;;;;5091445;28;20474;-53
2021/04/23 05:23:56;;;;;;;6.78;3.70;;;13.30;99.90;;;;;;5093504;28;20048;-50
2021/04/23 05:26:23;;;;;;;5.40;3.35;;;13.30;99.90;;;;;;5091359;28;20048;-51
2021/04/23 05:28:50;;;;;;;7.72;4.65;;;13.30;99.90;;;;;;5075587;28;20375;-50
2021/04/23 05:31:20;;;;;;;8.85;4.75;;;13.20;99.90;;;;;;5089758;28;20051;-52
2021/04/23 05:33:48;;;;;;;6.97;3.40;;;13.00;99.90;;;;;;5059302;28;20044;-50
2021/04/23 05:36:16;;;;;;;5.28;3.20;;;13.10;99.90;;;;;;5091199;28;20051;-50
2021/04/23 05:38:45;;;;;;;5.18;3.10;;;13.10;99.90;;;;;;5090359;28;20052;-53
2021/04/23 05:41:13;;;;;;;7.68;3.90;;;13.10;99.90;;;;;;5072873;28;20049;-53
2021/04/23 05:43:42;;;;;;;5.53;3.22;;;13.20;99.90;;;;;;5073585;28;20044;-49
2021/04/23 05:46:10;;;;;;;5.45;3.03;;;13.20;99.90;;;;;;5055371;28;20510;-50
2021/04/23 05:48:38;;;;;;;4.53;2.85;;;13.30;99.90;;;;;;5091963;28;20078;-48
2021/04/23 05:51:05;;;;;;;10.48;4.50;;;13.30;99.90;;;;;;5088805;28;20058;-49
2021/04/23 05:53:33;;;;;;;6.03;2.97;;;13.20;99.90;;;;;;5074628;28;20089;-50
2021/04/23 05:56:03;;;;;;;7.10;2.88;;;13.20;99.90;;;;;;5089920;28;20044;-50
2021/04/23 05:58:31;;;;;;;7.55;3.92;;;13.20;99.90;;;;;;5090911;28;20040;-50
2021/04/23 06:00:58;;;;;;;8.77;3.80;;;13.20;99.90;;;;;;5088835;28;20040;-49
2021/04/23 06:03:27;;;;;;;6.43;3.83;;;13.10;99.90;;;;;;5057096;28;20108;-49
2021/04/23 06:05:57;;;;;;;8.07;4.93;;;13.10;99.90;;;;;;5073942;28;20131;-52
2021/04/23 06:08:25;;;;;;;33.00;18.23;;;13.00;99.90;;;;;;5091642;28;20121;-50
2021/04/23 06:10:52;;;;;;;8.73;5.53;;;12.90;99.90;;;;;;5072113;28;20406;-49
2021/04/23 06:13:19;;;;;;;7.25;5.25;;;12.90;99.90;;;;;;5092857;28;20048;-50
2021/04/23 06:15:48;;;;;;;9.85;4.88;;;12.80;99.90;;;;;;5091375;28;20052;-54
2021/04/23 06:18:17;;;;;;;7.00;4.60;;;12.90;99.90;;;;;;5072976;28;20072;-52
2021/04/23 06:20:45;;;;;;;5.03;3.22;;;12.90;99.90;;;;;;5072172;28;20082;-52
2021/04/23 06:23:15;;;;;;;5.47;3.30;;;12.90;99.90;;;;;;5090445;28;20387;-51
2021/04/23 06:25:43;;;;;;;7.10;3.92;;;12.90;99.90;;;;;;5055132;28;20078;-51
2021/04/23 06:28:11;;;;;;;7.43;3.08;;;12.90;99.90;;;;;;5057335;28;20055;-49
2021/04/23 06:30:39;;;;;;;7.82;3.47;;;12.90;99.90;;;;;;5090704;28;20051;-51
2021/04/23 06:33:16;;;;;;;5.15;3.10;;;12.90;99.90;;;;;;5073467;28;20102;-49
2021/04/23 06:35:46;;;;;;;5.55;3.67;;;12.90;99.90;;;;;;5087336;28;20071;-50
2021/04/23 06:38:14;;;;;;;5.82;3.17;;;12.90;99.90;;;;;;5090764;28;20046;-51
2021/04/23 06:40:42;;;;;;;5.88;3.55;;;12.90;99.90;;;;;;5056379;28;20033;-53
2021/04/23 06:43:10;;;;;;;5.57;3.63;;;12.90;99.90;;;;;;5084039;28;20055;-52
2021/04/23 06:45:38;;;;;;;7.68;3.20;;;12.80;99.90;;;;;;5078346;28;20528;-48
2021/04/23 06:48:10;;;;;;;5.35;3.33;;;12.90;99.90;;;;;;5079434;28;20062;-48
2021/04/23 06:50:41;;;;;;;7.18;3.70;;;12.90;99.90;;;;;;5079221;28;20086;-48
2021/04/23 06:53:15;;;;;;;5.13;2.95;;;12.90;99.90;;;;;;5077395;28;20048;-49
2021/04/23 06:55:45;;;;;;;9.43;3.55;;;12.90;99.90;;;;;;5085378;28;20044;-49
2021/04/23 06:58:13;;;;;;;12.20;3.67;;;13.00;99.90;;;;;;5072971;28;20410;-48
2021/04/23 07:00:42;;;;;;;4.90;3.20;;;13.00;99.90;;;;;;5047435;28;20091;-51
2021/04/23 07:03:19;;;;;;;7.22;3.60;;;13.00;99.90;;;;;;5082259;28;20094;-47
2021/04/23 07:05:47;;;;;;;9.38;4.72;;;13.00;99.90;;;;;;5076791;28;20044;-51
2021/04/23 07:08:17;;;;;;;6.47;4.60;;;13.00;99.90;;;;;;5081707;28;20056;-48
2021/04/23 07:10:46;;;;;;;5.45;3.40;;;13.00;99.90;;;;;;5087250;28;20498;-49
2021/04/23 07:13:14;;;;;;;6.63;3.38;;;13.00;99.90;;;;;;5059923;28;20045;-47
2021/04/23 07:15:42;;;;;;;7.70;3.40;;;13.10;99.90;;;;;;5058780;28;20044;-52
2021/04/23 07:18:28;;;;;;;7.05;3.80;;;13.10;99.90;;;;;;5090991;28;20051;-48
2021/04/23 07:21:01;;;;;;;6.93;3.60;;;13.20;99.90;;;;;;5084508;28;20557;-51
2021/04/23 07:23:32;;;;;;;7.40;3.50;;;13.20;99.90;;;;;;5084442;28;20055;-52
2021/04/23 07:26:03;;;;;;;11.57;5.93;;;13.20;99.90;;;;;;5086623;28;20134;-50
2021/04/23 07:28:34;;;;;;;11.20;3.13;;;13.20;99.90;;;;;;5052922;28;20051;-49
2021/04/23 07:31:05;;;;;;;5.38;2.75;;;13.20;99.90;;;;;;5070615;28;20556;-61
2021/04/23 07:33:41;;;;;;;4.28;3.35;;;13.20;99.90;;;;;;5073066;28;20046;-48
2021/04/23 07:36:09;;;;;;;5.68;3.10;;;13.20;99.90;;;;;;5087723;28;20062;-48
2021/04/23 07:38:43;;;;;;;6.72;3.47;;;13.20;99.90;;;;;;5089094;28;20398;-48
2021/04/23 07:41:12;;;;;;;6.43;2.97;;;13.20;99.90;;;;;;5057051;28;20470;-48
2021/04/23 07:43:47;;;;;;;9.73;3.38;;;13.30;99.90;;;;;;5089697;28;20388;-50
2021/04/23 07:46:27;;;;;;;4.72;3.05;;;13.20;99.90;;;;;;5084226;28;20443;-47
2021/04/23 07:48:55;;;;;;;5.28;3.20;;;13.30;99.90;;;;;;5058713;28;20048;-47
2021/04/23 07:51:23;;;;;;;4.35;3.28;;;13.30;99.90;;;;;;5051863;28;20036;-47
2021/04/23 07:53:54;;;;;;;6.25;3.38;;;13.30;99.90;;;;;;5074505;28;20067;-48
2021/04/23 07:56:25;;;;;;;4.90;2.92;;;13.40;99.90;;;;;;5084075;28;20040;-47
2021/04/23 07:59:05;;;;;;;5.25;3.22;;;13.50;99.90;;;;;;5089547;28;20067;-49
2021/04/23 08:01:40;;;;;;;5.18;3.00;;;13.60;99.90;;;;;;5086302;28;20051;-48
2021/04/23 08:04:09;;;;;;;6.15;2.80;;;13.40;99.90;;;;;;5057120;28;20157;-50
2021/04/23 08:06:42;;;;;;;4.88;2.67;;;13.40;99.90;;;;;;5086728;28;20048;-48
2021/04/23 08:09:12;;;;;;;6.75;3.90;;;13.40;99.90;;;;;;5089515;28;20048;-49
2021/04/23 08:11:40;;;;;;;8.93;4.78;;;13.30;99.90;;;;;;5086587;28;20056;-49
2021/04/23 08:14:11;;;;;;;5.53;2.88;;;13.30;99.90;;;;;;5091273;28;20566;-54
2021/04/23 08:16:41;;;;;;;5.63;2.67;;;13.30;99.90;;;;;;5088751;28;20036;-48
2021/04/23 08:19:12;;;;;;;15.98;4.55;;;13.30;99.90;;;;;;5076313;28;20467;-49
2021/04/23 08:21:42;;;;;;;6.50;3.10;;;13.40;99.90;;;;;;5091559;28;20052;-52
2021/04/23 08:24:11;;;;;;;4.03;2.65;;;13.50;99.90;;;;;;5060252;28;20047;-47
2021/04/23 08:26:43;;;;;;;6.07;3.28;;;13.60;99.90;;;;;;5072437;28;20052;-47
2021/04/23 08:29:11;;;;;;;5.80;2.78;;;13.50;99.90;;;;;;5093340;28;20126;-48
2021/04/23 08:31:43;;;;;;;4.05;2.30;;;13.50;99.90;;;;;;5087598;28;20044;-47
2021/04/23 08:34:13;;;;;;;7.93;2.70;;;13.50;99.90;;;;;;5078204;28;20056;-49
2021/04/23 08:36:47;;;;;;;4.90;2.83;;;13.50;99.90;;;;;;5084593;28;20125;-52
2021/04/23 08:39:19;;;;;;;9.52;3.22;;;13.60;99.90;;;;;;5087595;28;20398;-49
2021/04/23 08:41:49;;;;;;;3.75;2.38;;;13.50;99.90;;;;;;5067163;28;20068;-48
2021/04/23 08:44:29;;;;;;;9.98;3.15;;;13.50;99.90;;;;;;5061975;28;20056;-48
2021/04/23 08:46:58;;;;;;;3.63;2.63;;;13.50;99.90;;;;;;5085110;28;20052;-48
2021/04/23 08:49:26;;;;;;;6.88;2.72;;;13.70;99.90;;;;;;5078104;28;20056;-50
2021/04/23 08:51:59;;;;;;;4.88;3.78;;;13.80;99.90;;;;;;5082120;28;20059;-50
2021/04/23 08:54:30;;;;;;;7.43;3.55;;;13.80;99.90;;;;;;5063756;28;20048;-49
2021/04/23 08:57:04;;;;;;;7.35;4.60;;;13.80;99.90;;;;;;5075380;28;20052;-50
2021/04/23 08:59:32;;;;;;;4.95;3.50;;;13.80;99.90;;;;;;5087176;28;20490;-48
2021/04/23 09:02:14;;;;;;;9.07;5.68;;;13.90;99.90;;;;;;5067099;28;20380;-49
2021/04/23 09:04:46;;;;;;;4.88;3.83;;;13.90;99.90;;;;;;5059210;28;20052;-52
2021/04/23 09:07:17;;;;;;;5.07;3.40;;;14.00;99.90;;;;;;5064224;28;20059;-51
2021/04/23 09:09:45;;;;;;;5.38;3.50;;;14.00;99.90;;;;;;5077557;28;20504;-48
2021/04/23 09:12:26;;;;;;;8.20;4.78;;;14.20;99.90;;;;;;5087281;28;20139;-49
2021/04/23 09:14:55;;;;;;;5.15;3.90;;;14.20;99.90;;;;;;5083798;28;20066;-49
2021/04/23 09:17:25;;;;;;;9.75;7.75;;;14.30;99.90;;;;;;5080629;28;20055;-50
2021/04/23 09:19:54;;;;;;;7.38;5.68;;;14.40;99.90;;;;;;5081802;28;20042;-51
2021/04/23 09:22:25;;;;;;;12.52;8.18;;;14.50;99.90;;;;;;5069208;28;20047;-48
2021/04/23 09:25:06;;;;;;;8.40;5.65;;;14.60;99.90;;;;;;5086109;28;20049;-50
2021/04/23 09:27:40;;;;;;;6.38;4.10;;;14.70;99.90;;;;;;5073132;28;20136;-54
2021/04/23 09:30:18;;;;;;;5.53;3.35;;;14.90;99.90;;;;;;5079411;28;20048;-52
2021/04/23 09:32:48;;;;;;;7.47;2.97;;;15.00;99.90;;;;;;5079957;28;20054;-56
2021/04/23 09:35:17;;;;;;;6.60;3.22;;;15.10;99.90;;;;;;5063833;28;20049;-50
2021/04/23 09:37:49;;;;;;;6.00;3.00;;;15.20;99.90;;;;;;5088424;28;20040;-50
2021/04/23 09:40:20;;;;;;;5.30;2.80;;;15.30;99.90;;;;;;5080802;28;20052;-52
2021/04/23 09:43:00;;;;;;;5.72;4.07;;;15.30;99.90;;;;;;5084063;28;20056;-54
2021/04/23 09:45:33;;;;;;;6.18;4.25;;;15.30;99.90;;;;;;5095265;28;20080;-49
2021/04/23 09:48:03;;;;;;;3.63;2.70;;;15.40;99.90;;;;;;5082275;28;20052;-50
2021/04/23 09:50:34;;;;;;;5.07;3.55;;;15.30;99.90;;;;;;5084440;28;20509;-52
2021/04/23 09:53:07;;;;;;;6.13;3.20;;;15.40;99.90;;;;;;5081864;28;20143;-53
2021/04/23 09:55:39;;;;;;;5.88;4.65;;;15.40;99.90;;;;;;5084981;28;20482;-53
2021/04/23 09:58:11;;;;;;;5.80;4.30;;;15.40;99.90;;;;;;5087359;28;20116;-49
2021/04/23 10:00:41;;;;;;;5.60;2.95;;;15.40;99.90;;;;;;5085473;28;20490;-50
2021/04/23 10:03:09;;;;;;;8.05;4.82;;;15.40;99.90;;;;;;5074554;28;20487;-48
2021/04/23 10:05:44;;;;;;;4.50;2.95;;;15.50;99.90;;;;;;5077433;28;20052;-49
2021/04/23 10:08:38;;;;;;;4.25;2.63;;;15.50;99.90;;;;;;5058300;28;20080;-50
2021/04/23 10:11:06;;;;;;;5.03;2.95;;;15.70;99.90;;;;;;5060765;28;20052;-49
2021/04/23 10:13:34;;;;;;;7.45;4.47;;;15.80;99.90;;;;;;5070858;28;20064;-52
2021/04/23 10:16:08;;;;;;;4.10;3.47;;;16.00;99.90;;;;;;5061572;28;20056;-53
2021/04/23 10:18:39;;;;;;;4.60;2.90;;;16.10;99.90;;;;;;5071699;28;20056;-50
2021/04/23 10:21:07;;;;;;;7.43;4.22;;;16.20;99.90;;;;;;5083630;28;20052;-50
2021/04/23 10:23:36;;;;;;;3.22;2.20;;;16.30;99.90;;;;;;5055320;28;20402;-50
2021/04/23 10:26:12;;;;;;;7.90;4.78;;;16.30;99.90;;;;;;5082807;28;20106;-49
2021/04/23 10:28:42;;;;;;;17.23;10.43;;;16.30;99.90;;;;;;5071469;28;20390;-53
2021/04/23 10:31:09;;;;;;;12.18;5.95;;;16.30;99.90;;;;;;5065551;28;20044;-51
2021/04/23 10:33:38;;;;;;;15.73;8.20;;;16.20;99.90;;;;;;5070996;28;20356;-52
2021/04/23 10:36:06;;;;;;;6.28;4.05;;;16.20;99.90;;;;;;5054135;28;20528;-49
2021/04/23 10:38:35;;;;;;;4.97;3.50;;;16.10;99.90;;;;;;5086227;28;20055;-49
2021/04/23 10:41:10;;;;;;;6.45;4.03;;;16.00;99.90;;;;;;5082472;28;20466;-49
2021/04/23 10:43:54;;;;;;;5.18;2.33;;;16.00;99.90;;;;;;5054766;28;20577;-49
2021/04/23 10:46:32;;;;;;;3.05;1.80;;;15.90;99.90;;;;;;5084233;28;20044;-49
2021/04/23 10:49:10;;;;;;;4.70;1.60;;;15.80;99.90;;;;;;5092691;28;20386;-49
2021/04/23 10:51:38;;;;;;;3.78;2.00;;;15.70;99.90;;;;;;5066364;28;20106;-52
2021/04/23 10:54:16;;;;;;;3.85;2.08;;;15.70;99.90;;;;;;5070986;28;20052;-55
2021/04/23 10:56:55;;;;;;;4.38;1.70;;;15.60;99.90;;;;;;5081979;28;20507;-50
2021/04/23 10:59:23;;;;;;;8.63;4.45;;;15.60;99.90;;;;;;5089061;28;20494;-49
2021/04/23 11:02:13;;;;;;;7.50;4.03;;;15.60;99.90;;;;;;5064779;28;20040;-51
2021/04/23 11:05:00;;;;;;;3.75;2.25;;;15.60;99.90;;;;;;5057212;28;20055;-50
2021/04/23 11:07:29;;;;;;;3.63;2.42;;;15.60;99.90;;;;;;5080650;28;20060;-51
2021/04/23 11:10:02;;;;;;;5.70;2.47;;;15.50;99.90;;;;;;5074617;28;20135;-51
2021/04/23 11:12:33;;;;;;;4.03;2.60;;;15.50;99.90;;;;;;5081685;28;20088;-49
2021/04/23 11:15:11;;;;;;;5.40;3.00;;;15.50;99.90;;;;;;5041695;28;20185;-53
2021/04/23 11:17:39;;;;;;;10.88;4.38;;;15.60;99.90;;;;;;5080513;28;20059;-50
2021/04/23 11:20:32;;;;;;;11.80;5.18;;;15.60;99.90;;;;;;5089348;28;20044;-49
2021/04/23 11:23:04;;;;;;;8.10;3.90;;;15.70;99.90;;;;;;5079361;28;20052;-54
2021/04/23 11:25:32;;;;;;;5.10;3.40;;;15.70;99.90;;;;;;5067807;28;20044;-51
2021/04/23 11:28:02;;;;;;;5.72;3.33;;;15.80;99.90;;;;;;5080054;28;20081;-53
2021/04/23 11:31:04;;;;;;;4.25;2.53;;;15.90;99.90;;;;;;5050746;28;20051;-50
2021/04/23 11:33:54;;;;;;;4.25;2.30;;;16.00;99.90;;;;;;5079477;28;20094;-51
2021/04/23 11:36:33;;;;;;;3.80;2.15;;;16.10;99.90;;;;;;5082231;28;20105;-52
2021/04/23 11:39:04;;;;;;;3.45;1.98;;;16.10;99.90;;;;;;5087464;28;20064;-50
2021/04/23 11:41:32;;;;;;;3.40;2.35;;;16.20;99.90;;;;;;5079561;28;20094;-53
2021/04/23 11:43:59;;;;;;;6.35;2.85;;;16.30;99.90;;;;;;5074350;28;20414;-56
2021/04/23 11:46:48;;;;;;;3.22;1.88;;;16.40;99.90;;;;;;5082319;28;20072;-53
2021/04/23 11:49:16;;;;;;;4.45;1.95;;;16.50;99.90;;;;;;5055891;28;20060;-54
2021/04/23 11:51:53;;;;;;;3.22;2.15;;;16.50;99.90;;;;;;5081450;28;20181;-58
2021/04/23 11:54:42;;;;;;;3.78;2.17;;;16.60;99.90;;;;;;5090152;28;20044;-59
2021/04/23 11:57:14;;;;;;;6.60;2.63;;;16.70;99.90;;;;;;5078991;28;20546;-62
2021/04/23 12:00:09;;;;;;;4.35;2.55;;;16.70;99.90;;;;;;5085860;28;20059;-62
2021/04/23 12:02:55;;;;;;;3.10;2.22;;;16.80;99.90;;;;;;5080977;28;20495;-62
2021/04/23 12:05:26;;;;;;;3.33;2.55;;;16.90;99.90;;;;;;5080867;28;20529;-62
2021/04/23 12:08:00;;;;;;;4.43;2.58;;;17.00;99.90;;;;;;5088731;28;20056;-62
2021/04/23 12:10:29;;;;;;;5.55;2.20;;;17.00;99.90;;;;;;5080677;28;20375;-62
2021/04/23 12:13:00;;;;;;;3.17;2.20;;;17.00;99.90;;;;;;5082788;28;20044;-62
2021/04/23 12:15:33;;;;;;;3.40;2.17;;;17.00;99.90;;;;;;5082839;28;20054;-62
2021/04/23 12:18:03;;;;;;;2.83;2.22;;;17.00;99.90;;;;;;5090229;28;20493;-62
2021/04/23 12:20:40;;;;;;;4.07;2.15;;;17.10;99.90;;;;;;5079892;28;20040;-61
2021/04/23 12:23:15;;;;;;;4.63;2.58;;;17.10;99.90;;;;;;5084052;28;20044;-62
2021/04/23 12:25:55;;;;;;;3.85;2.13;;;17.20;99.90;;;;;;5077342;28;20132;-62
2021/04/23 12:28:41;;;;;;;5.95;2.03;;;17.20;99.90;;;;;;5085540;28;20382;-62
2021/04/23 12:31:17;;;;;;;3.92;2.03;;;17.30;99.90;;;;;;5075768;28;20048;-62
2021/04/23 12:34:04;;;;;;;9.75;2.60;;;17.40;99.90;;;;;;5086976;28;20044;-62
2021/04/23 12:36:37;;;;;;;3.90;2.08;;;17.40;99.90;;;;;;5076243;28;20056;-61
2021/04/23 12:39:11;;;;;;;6.47;2.70;;;17.40;99.90;;;;;;5086715;28;20446;-59
2021/04/23 12:41:40;;;;;;;5.47;2.42;;;17.40;99.90;;;;;;5075956;28;20075;-62
2021/04/23 12:44:12;;;;;;;5.60;3.03;;;17.50;99.90;;;;;;5085355;28;20048;-62
2021/04/23 12:46:50;;;;;;;4.22;2.47;;;17.50;99.90;;;;;;5093960;28;20055;-62
2021/04/23 12:49:29;;;;;;;6.40;2.97;;;17.60;99.90;;;;;;5084541;28;20048;-62
2021/04/23 12:52:19;;;;;;;3.88;2.25;;;17.60;99.90;;;;;;5076819;28;20037;-61
2021/04/23 12:54:53;;;;;;;3.42;2.33;;;17.40;99.90;;;;;;5084568;28;20041;-62
2021/04/23 12:57:33;;;;;;;4.43;2.00;;;17.50;99.90;;;;;;5078069;28;20072;-62
2021/04/23 13:00:01;;;;;;;3.80;2.28;;;17.50;99.90;;;;;;5087645;28;20074;-62
2021/04/23 13:02:32;;;;;;;3.60;2.17;;;17.50;99.90;;;;;;5088897;28;20041;-61
2021/04/23 13:05:05;;;;;;;4.40;2.72;;;17.40;99.90;;;;;;5083608;28;20056;-62
2021/04/23 13:07:35;;;;;;;3.20;2.10;;;17.30;99.90;;;;;;5076800;28;20418;-62
2021/04/23 13:10:08;;;;;;;3.30;1.60;;;17.40;99.90;;;;;;5082905;28;20051;-61